Time;durP1;ratioP1;P1;durP2;ratioP2;P2;SDS_P1;SDS_P2;PMS_P1;PMS_P2;Temp;Humidity;BMP_temperature;BMP_pressure;BME280_temperature;BME280_humidity;BME280_pressure;Samples;Min_cycle;Max_cycle;Signal;HPM_P1;HPM_P2
2022/11/17 00:01:52;;;;;;;7.50;6.13;;;;;;;6.45;88.98;94013.25;1749697;82;21009;-66
2022/11/17 00:04:19;;;;;;;8.87;6.40;;;;;;;6.49;89.03;94011.39;1749267;82;21119;-66
2022/11/17 00:06:46;;;;;;;7.57;5.70;;;;;;;6.56;89.21;94009.01;1749684;82;21017;-66
2022/11/17 00:09:16;;;;;;;7.43;5.97;;;;;;;6.65;89.12;94011.38;1749785;82;21008;-66
2022/11/17 00:14:33;;;;;;;8.60;6.20;;;;;;;6.83;88.97;94014.34;1749782;82;21032;-66
2022/11/17 00:17:00;;;;;;;8.03;6.30;;;;;;;6.83;88.39;94012.59;1749700;82;21048;-66
2022/11/17 00:22:13;;;;;;;8.40;6.73;;;;;;;6.91;88.48;94005.36;1749714;82;21335;-66
2022/11/17 00:24:40;;;;;;;8.40;6.37;;;;;;;7.06;88.85;94002.72;1749628;82;21494;-66
2022/11/17 00:27:07;;;;;;;7.50;6.10;;;;;;;7.07;87.64;93996.56;1749540;82;21486;-66
2022/11/17 00:29:33;;;;;;;7.40;6.23;;;;;;;7.05;87.75;94000.98;1749964;82;21035;-66
2022/11/17 00:34:45;;;;;;;8.97;6.53;;;;;;;7.12;87.13;93987.25;1749785;82;20965;-66
2022/11/17 00:37:14;;;;;;;8.23;6.23;;;;;;;7.06;86.81;93990.08;1749857;82;21009;-66
2022/11/17 00:39:40;;;;;;;7.70;6.03;;;;;;;7.00;86.98;93988.47;1749579;82;20989;-66
2022/11/17 00:42:07;;;;;;;6.57;5.07;;;;;;;7.02;87.08;93985.81;1749672;82;20996;-66
2022/11/17 00:44:33;;;;;;;7.97;5.43;;;;;;;7.00;87.00;93989.78;1749404;82;21044;-66
2022/11/17 00:47:01;;;;;;;8.70;5.97;;;;;;;7.01;87.43;93986.27;1749711;82;21004;-66
2022/11/17 00:49:27;;;;;;;7.23;5.43;;;;;;;7.03;87.08;93981.84;1749937;82;21058;-66
2022/11/17 00:51:55;;;;;;;6.80;4.90;;;;;;;7.00;86.82;93979.30;1749676;82;21020;-66
2022/11/17 00:54:23;;;;;;;8.30;5.00;;;;;;;6.90;86.80;93974.81;1749654;82;21475;-66
2022/11/17 00:56:49;;;;;;;7.00;5.33;;;;;;;6.88;87.20;93971.37;1749659;82;20961;-66
2022/11/17 00:59:17;;;;;;;7.47;5.13;;;;;;;6.85;87.07;93971.90;1744113;82;21055;-66
2022/11/17 01:01:45;;;;;;;7.83;5.50;;;;;;;6.85;87.28;93970.59;1740764;82;21938;-66
2022/11/17 01:04:13;;;;;;;7.17;5.27;;;;;;;6.84;87.33;93973.67;1712091;82;21012;-66
2022/11/17 01:06:47;;;;;;;6.60;5.10;;;;;;;6.84;87.36;93959.25;1741151;82;21484;-66
2022/11/17 01:09:19;;;;;;;;;;;;;;;6.82;87.13;93965.44;1743389;82;21051;-66
2022/11/17 01:11:47;;;;;;;7.07;4.73;;;;;;;6.76;87.05;93956.47;1740421;82;20112;-66
2022/11/17 01:14:22;;;;;;;6.20;4.50;;;;;;;6.65;87.30;93955.45;1740970;82;21079;-66
2022/11/17 01:16:49;;;;;;;7.70;5.53;;;;;;;6.59;87.41;93949.95;1740927;82;21019;-66
2022/11/17 01:19:17;;;;;;;7.30;5.97;;;;;;;6.54;87.49;93952.31;1741208;82;21007;-66
2022/11/17 01:21:44;;;;;;;7.33;5.57;;;;;;;6.52;87.69;93946.25;1740958;82;21066;-66
2022/11/17 01:24:12;;;;;;;7.90;6.13;;;;;;;6.49;87.97;93945.88;1741006;82;21020;-66
2022/11/17 01:26:39;;;;;;;7.93;5.77;;;;;;;6.50;88.08;93943.66;1740878;82;21074;-66
2022/11/17 01:29:08;;;;;;;7.73;5.50;;;;;;;6.48;88.07;93936.32;1740426;82;21016;-66
2022/11/17 01:31:38;;;;;;;9.00;6.20;;;;;;;6.47;88.13;93932.81;1740962;82;21055;-66
2022/11/17 01:34:06;;;;;;;9.13;5.63;;;;;;;6.44;88.21;93935.53;1740921;82;21477;-66
2022/11/17 01:39:26;;;;;;;8.50;5.77;;;;;;;6.36;88.27;93931.44;1741141;82;21076;-66
2022/11/17 01:41:54;;;;;;;9.43;6.40;;;;;;;6.34;88.41;93926.69;1740814;82;21059;-66
2022/11/17 01:44:55;;;;;;;7.33;6.13;;;;;;;6.34;88.35;93926.23;1740643;82;21490;-66
2022/11/17 01:47:36;;;;;;;8.37;5.40;;;;;;;6.34;88.65;93923.61;1658815;82;21035;-66
2022/11/17 01:50:24;;;;;;;8.40;6.37;;;;;;;6.38;88.83;93909.98;1740320;82;21059;-66
2022/11/17 01:52:54;;;;;;;11.30;7.07;;;;;;;6.37;88.67;93903.87;1729461;82;21004;-66
2022/11/17 01:55:23;;;;;;;9.37;6.83;;;;;;;6.41;88.60;93903.34;1740915;82;21051;-66
2022/11/17 01:57:55;;;;;;;9.77;6.73;;;;;;;6.42;89.01;93893.26;1740769;82;21043;-66
2022/11/17 02:00:22;;;;;;;8.10;6.10;;;;;;;6.46;89.17;93887.88;1743400;82;21043;-66
2022/11/17 02:02:50;;;;;;;9.63;6.77;;;;;;;6.50;88.72;93897.80;1744104;82;21031;-66
2022/11/17 02:05:42;;;;;;;11.80;7.30;;;;;;;6.45;88.25;93901.02;1744223;82;21058;-66
2022/11/17 02:08:11;;;;;;;9.03;6.70;;;;;;;6.48;89.04;93885.23;1744216;82;21042;-66
2022/11/17 02:10:41;;;;;;;9.80;7.23;;;;;;;6.50;88.69;93891.26;1744139;82;20996;-66
2022/11/17 02:13:08;;;;;;;7.57;6.03;;;;;;;6.58;89.29;93895.84;1744345;82;21015;-67
2022/11/17 02:15:35;;;;;;;8.03;5.67;;;;;;;6.70;89.44;93891.53;1744208;82;21086;-66
2022/11/17 02:18:02;;;;;;;8.17;6.60;;;;;;;6.71;88.62;93881.44;1744454;82;21047;-66
2022/11/17 02:20:46;;;;;;;7.37;6.00;;;;;;;6.73;88.74;93881.41;1744328;82;21146;-66
2022/11/17 02:23:27;;;;;;;7.73;5.93;;;;;;;6.82;88.88;93881.56;1744089;82;21095;-66
2022/11/17 02:26:29;;;;;;;8.07;5.97;;;;;;;6.86;88.13;93881.88;1744492;82;21077;-66
2022/11/17 02:29:04;;;;;;;6.77;5.30;;;;;;;6.85;88.14;93875.75;1744138;82;21035;-66
2022/11/17 02:31:54;;;;;;;7.50;5.93;;;;;;;6.83;87.67;93871.46;1744489;82;21022;-66
2022/11/17 02:34:43;;;;;;;8.43;5.93;;;;;;;6.85;88.32;93866.58;1744353;82;21095;-66
2022/11/17 02:37:42;;;;;;;6.50;5.37;;;;;;;6.92;88.43;93870.72;1744511;82;21003;-66
2022/11/17 02:40:32;;;;;;;5.57;4.90;;;;;;;6.98;88.25;93866.19;1744014;82;21138;-66
2022/11/17 02:46:03;;;;;;;6.57;5.37;;;;;;;6.89;87.63;93864.27;1744361;82;21091;-66
2022/11/17 02:48:35;;;;;;;7.87;5.23;;;;;;;6.86;87.55;93862.22;1743984;82;20988;-66
2022/11/17 02:51:04;;;;;;;5.53;4.73;;;;;;;6.85;87.71;93853.47;1744659;82;21019;-66
2022/11/17 02:53:31;;;;;;;6.07;4.80;;;;;;;6.88;87.74;93857.78;1719285;82;20991;-66
2022/11/17 02:56:01;;;;;;;5.87;4.63;;;;;;;6.80;86.91;93855.38;1744596;82;21078;-66
2022/11/17 02:58:27;;;;;;;5.87;4.60;;;;;;;6.68;86.93;93852.72;1744550;82;21550;-66
2022/11/17 03:01:11;;;;;;;5.77;5.00;;;;;;;6.63;87.53;93856.39;1749613;82;21091;-66
2022/11/17 03:04:18;;;;;;;8.10;5.10;;;;;;;6.59;87.78;93852.99;1749131;82;21004;-66
2022/11/17 03:07:16;;;;;;;6.30;4.90;;;;;;;6.56;87.58;93849.16;1749607;82;21535;-66
2022/11/17 03:10:29;;;;;;;6.50;5.40;;;;;;;6.45;87.56;93848.20;1743935;82;21079;-66
2022/11/17 03:13:13;;;;;;;5.63;5.07;;;;;;;6.37;88.06;93846.70;1749365;82;21095;-66
2022/11/17 03:16:05;;;;;;;6.17;5.33;;;;;;;6.36;88.50;93848.92;1748878;82;21040;-66
2022/11/17 03:18:56;;;;;;;7.20;5.13;;;;;;;6.34;88.58;93845.48;1749660;82;21017;-66
2022/11/17 03:21:31;;;;;;;6.13;5.13;;;;;;;6.33;88.80;93846.41;1749127;82;21064;-66
2022/11/17 03:24:24;;;;;;;5.63;4.80;;;;;;;6.31;88.80;93844.28;1749883;82;21028;-66
2022/11/17 03:27:18;;;;;;;6.93;4.87;;;;;;;6.27;88.78;93844.38;1748464;82;20984;-66
2022/11/17 03:29:49;;;;;;;4.97;4.03;;;;;;;6.25;89.23;93837.47;1749268;82;20985;-66
2022/11/17 03:32:18;;;;;;;7.10;5.47;;;;;;;6.20;89.03;93822.31;1749835;82;21550;-66
2022/11/17 03:35:05;;;;;;;6.60;5.00;;;;;;;6.16;89.19;93821.56;1749727;82;20964;-66
2022/11/17 03:37:36;;;;;;;6.77;4.30;;;;;;;6.20;89.32;93821.89;1749818;82;21526;-66
2022/11/17 03:40:10;;;;;;;4.67;3.80;;;;;;;6.23;89.04;93817.01;1749773;82;21506;-66
2022/11/17 03:42:41;;;;;;;4.13;3.47;;;;;;;6.24;89.20;93809.55;1749718;82;21024;-66
2022/11/17 03:45:19;;;;;;;5.43;4.03;;;;;;;6.25;89.65;93804.27;1749514;82;21012;-66
2022/11/17 03:47:49;;;;;;;4.80;4.27;;;;;;;6.34;89.77;93816.67;1749223;82;21040;-66
2022/11/17 03:50:30;;;;;;;4.27;3.87;;;;;;;6.38;89.54;93809.14;1749771;82;21498;-66
2022/11/17 03:52:57;;;;;;;4.10;3.60;;;;;;;6.39;89.40;93806.91;1749998;82;21020;-67
2022/11/17 03:55:28;;;;;;;4.33;3.77;;;;;;;6.43;89.82;93802.84;1749790;82;21025;-66
2022/11/17 03:58:00;;;;;;;4.60;4.00;;;;;;;6.49;89.62;93800.48;1749486;82;21025;-66
2022/11/17 04:00:27;;;;;;;4.60;3.90;;;;;;;6.55;89.56;93807.28;1732946;82;21036;-66
2022/11/17 04:03:01;;;;;;;4.67;4.17;;;;;;;6.60;89.43;93813.23;1740858;82;21035;-66
2022/11/17 04:05:25;;;;;;;4.70;3.73;;;;;;;6.60;88.69;93810.61;1707561;84;20994;-67
2022/11/17 04:07:52;;;;;;;3.87;3.50;;;;;;;6.64;89.42;93809.61;1701264;84;21025;-66
2022/11/17 04:10:24;;;;;;;4.07;3.53;;;;;;;6.69;89.32;93811.17;1708133;84;21022;-66
2022/11/17 04:15:55;;;;;;;4.23;3.70;;;;;;;6.64;89.00;93809.16;1708500;84;21064;-66
2022/11/17 04:18:22;;;;;;;6.20;4.03;;;;;;;6.73;89.36;93811.95;1708148;84;21089;-66
2022/11/17 04:20:52;;;;;;;4.77;4.27;;;;;;;6.69;88.31;93812.48;1708074;84;21078;-66
2022/11/17 04:23:20;;;;;;;5.10;4.60;;;;;;;6.66;88.74;93819.60;1707183;84;21041;-66
2022/11/17 04:28:45;;;;;;;4.87;4.13;;;;;;;6.85;88.93;93817.22;1708042;84;21033;-66
2022/11/17 04:31:21;;;;;;;4.30;3.90;;;;;;;6.86;88.59;93815.88;1708243;84;21013;-66
2022/11/17 04:33:53;;;;;;;3.57;3.10;;;;;;;6.93;88.85;93811.30;1708260;83;21014;-66
2022/11/17 04:36:26;;;;;;;3.40;3.10;;;;;;;7.04;88.91;93811.78;1707005;84;21057;-66
2022/11/17 04:38:54;;;;;;;;;;;;;;;6.94;87.45;93815.16;1710659;83;20982;-66
2022/11/17 04:44:12;;;;;;;6.37;5.57;;;;;;;6.78;87.70;93806.11;1708229;84;21049;-65
2022/11/17 04:46:40;;;;;;;7.00;6.17;;;;;;;6.74;88.12;93807.09;1708108;84;21081;-64
2022/11/17 04:49:08;;;;;;;6.40;5.40;;;;;;;6.71;88.42;93805.44;1708344;83;21000;-64
2022/11/17 04:51:35;;;;;;;5.27;4.60;;;;;;;6.69;88.40;93799.84;1708292;83;21037;-64
2022/11/17 04:54:03;;;;;;;6.07;4.33;;;;;;;6.69;88.50;93809.86;1708239;83;21025;-64
2022/11/17 04:56:30;;;;;;;4.40;4.00;;;;;;;6.77;88.78;93804.37;1708383;84;21016;-64
2022/11/17 04:58:57;;;;;;;5.07;3.97;;;;;;;6.83;89.17;93806.81;1707880;83;21560;-63
2022/11/17 05:01:26;;;;;;;4.70;4.10;;;;;;;6.90;88.82;93807.44;1708108;84;21117;-64
2022/11/17 05:04:01;;;;;;;4.77;4.27;;;;;;;6.97;88.77;93808.11;1708214;83;20978;-63
2022/11/17 05:06:35;;;;;;;5.67;5.07;;;;;;;6.90;88.00;93804.82;1708196;83;21030;-63
2022/11/17 05:09:06;;;;;;;5.53;5.03;;;;;;;6.83;88.23;93808.12;1708312;83;21464;-63
2022/11/17 05:14:21;;;;;;;7.67;6.73;;;;;;;6.81;88.69;93806.00;1708108;84;21061;-63
2022/11/17 05:19:39;;;;;;;5.00;4.50;;;;;;;6.73;88.52;93801.47;1708052;84;21070;-64
2022/11/17 05:23:52;;;;;;;5.53;3.97;;;;;;;6.76;88.77;93802.67;1708581;83;21006;-64
2022/11/17 05:24:36;;;;;;;6.30;4.20;;;;;;;6.75;88.68;93801.39;1711458;82;21045;-64
2022/11/17 05:27:02;;;;;;;5.97;5.37;;;;;;;6.73;88.64;93798.84;1708179;84;21070;-64
2022/11/17 05:29:29;;;;;;;7.37;5.90;;;;;;;6.71;88.41;93801.97;1708080;84;21011;-64
2022/11/17 05:31:56;;;;;;;8.83;6.77;;;;;;;6.65;88.37;93800.83;1708449;84;21122;-64
2022/11/17 05:34:22;;;;;;;9.97;7.00;;;;;;;6.61;88.42;93796.16;1708244;84;21077;-63
2022/11/17 05:36:49;;;;;;;8.53;6.77;;;;;;;6.58;88.53;93807.20;1708264;84;21548;-63
2022/11/17 05:39:15;;;;;;;9.23;7.40;;;;;;;6.54;88.60;93802.95;1708426;84;21033;-63
2022/11/17 05:41:42;;;;;;;6.77;5.90;;;;;;;6.50;88.68;93806.11;1708209;83;21476;-63
2022/11/17 05:44:09;;;;;;;6.93;5.17;;;;;;;6.47;89.06;93802.28;1707751;84;21037;-63
2022/11/17 05:46:35;;;;;;;9.33;5.63;;;;;;;6.42;89.13;93805.50;1708358;83;21532;-63
2022/11/17 05:49:02;;;;;;;9.27;7.60;;;;;;;6.41;89.14;93804.64;1708225;84;21002;-63
2022/11/17 05:51:31;;;;;;;8.70;7.73;;;;;;;6.43;89.03;93805.46;1708201;83;21018;-63
2022/11/17 05:53:58;;;;;;;11.23;8.53;;;;;;;6.42;88.94;93810.28;1707376;84;21706;-64
2022/11/17 05:56:32;;;;;;;15.73;11.00;;;;;;;6.46;89.49;93811.06;1707864;83;21060;-63
2022/11/17 05:59:13;;;;;;;9.40;6.70;;;;;;;6.50;89.77;93814.84;1707700;83;21006;-64
2022/11/17 06:01:45;;;;;;;17.80;12.57;;;;;;;6.56;90.12;93809.86;1705631;84;21022;-72
2022/11/17 06:04:16;;;;;;;15.50;10.67;;;;;;;6.57;89.80;93806.78;1704252;84;21057;-67
2022/11/17 06:06:44;;;;;;;21.20;13.67;;;;;;;6.65;90.07;93806.08;1705442;83;20998;-63
2022/11/17 06:09:11;;;;;;;12.90;10.80;;;;;;;6.67;89.42;93807.73;1704931;83;21085;-65
2022/11/17 06:11:38;;;;;;;14.90;10.27;;;;;;;6.68;89.74;93800.76;1704667;84;22158;-67
2022/11/17 06:14:04;;;;;;;10.97;9.77;;;;;;;6.76;89.75;93805.29;1703933;84;21587;-67
2022/11/17 06:16:35;;;;;;;11.43;9.13;;;;;;;6.83;89.84;93805.92;1704305;84;21164;-79
2022/11/17 06:19:06;;;;;;;10.97;9.10;;;;;;;6.85;89.82;93808.05;1705456;84;21034;-73
2022/11/17 06:21:34;;;;;;;12.40;8.90;;;;;;;6.88;89.37;93815.38;1705164;83;21568;-66
2022/11/17 06:24:03;;;;;;;7.80;5.10;;;;;;;6.89;89.21;93821.47;1705452;83;21002;-67
2022/11/17 06:26:30;;;;;;;7.83;4.80;;;;;;;6.97;89.64;93815.52;1704655;84;20995;-66
2022/11/17 06:28:57;;;;;;;8.63;3.37;;;;;;;7.00;89.36;93819.34;1705183;84;21044;-65
2022/11/17 06:31:26;;;;;;;3.37;3.00;;;;;;;7.10;90.12;93820.74;1705153;84;21378;-67
2022/11/17 06:33:53;;;;;;;2.23;1.20;;;;;;;7.21;90.49;93816.47;1705510;84;20994;-71
2022/11/17 06:36:20;;;;;;;87.33;39.70;;;;;;;7.38;91.29;93825.05;1703988;84;21116;-66
2022/11/17 06:38:47;;;;;;;12.33;6.83;;;;;;;7.53;91.10;93825.86;1704762;84;21073;-67
2022/11/17 06:41:14;;;;;;;16.33;9.40;;;;;;;7.62;90.72;93827.28;1703979;84;21109;-68
2022/11/17 06:43:41;;;;;;;17.20;11.20;;;;;;;7.71;90.55;93830.02;1704080;84;21104;-69
2022/11/17 06:46:07;;;;;;;6.47;4.77;;;;;;;7.78;90.65;93839.39;1704941;83;21504;-68
2022/11/17 06:48:34;;;;;;;5.97;4.63;;;;;;;7.88;90.68;93822.39;1705293;83;21125;-71
2022/11/17 06:51:03;;;;;;;8.70;7.40;;;;;;;7.97;90.42;93833.03;1703992;84;21077;-68
2022/11/17 06:53:33;;;;;;;8.53;6.63;;;;;;;8.03;90.24;93838.05;1704188;83;21132;-67
2022/11/17 06:56:05;;;;;;;5.90;4.87;;;;;;;8.10;90.33;93842.63;1703787;83;21105;-71
2022/11/17 06:58:34;;;;;;;2.47;1.97;;;;;;;8.14;90.02;93844.20;1704146;84;21089;-68
2022/11/17 07:01:08;;;;;;;3.40;2.20;;;;;;;8.16;89.96;93841.92;1707106;83;21077;-69
2022/11/17 07:03:37;;;;;;;2.20;2.00;;;;;;;8.26;90.17;93846.84;1710409;83;21109;-70
2022/11/17 07:06:06;;;;;;;4.77;4.23;;;;;;;8.32;90.00;93841.38;1709622;84;21499;-67
2022/11/17 07:08:34;;;;;;;7.73;4.63;;;;;;;8.34;89.79;93843.03;1709421;84;21029;-69
2022/11/17 07:11:10;;;;;;;3.73;3.33;;;;;;;8.38;89.79;93849.02;1709438;82;20974;-66
2022/11/17 07:13:37;;;;;;;3.73;3.30;;;;;;;8.45;90.02;93850.53;1742349;82;21116;-66
2022/11/17 07:16:08;;;;;;;4.40;3.90;;;;;;;8.50;89.97;93856.47;1741339;82;21657;-68
2022/11/17 07:18:37;;;;;;;9.00;4.10;;;;;;;8.58;90.41;93862.27;1742963;82;21022;-67
2022/11/17 07:21:09;;;;;;;2.77;2.00;;;;;;;8.71;90.40;93857.86;1742053;82;21049;-68
2022/11/17 07:23:37;;;;;;;3.20;1.90;;;;;;;8.72;89.62;93852.98;1742390;82;21049;-67
2022/11/17 07:26:04;;;;;;;2.17;1.50;;;;;;;8.74;89.49;93859.89;1742424;82;21117;-65
2022/11/17 07:28:33;;;;;;;1.73;1.60;;;;;;;8.72;89.16;93855.61;1742874;82;21061;-66
2022/11/17 07:31:06;;;;;;;4.03;2.77;;;;;;;8.73;89.58;93856.88;1743281;82;20998;-66
2022/11/17 07:33:33;;;;;;;2.95;1.77;;;;;;;8.71;88.91;93851.29;1743576;82;21606;-71
2022/11/17 07:36:09;;;;;;;12.82;7.20;;;;;;;8.70;89.36;93853.53;1742663;82;21088;-65
2022/11/17 07:38:38;;;;;;;2.03;1.83;;;;;;;8.74;89.07;93851.16;1741733;82;21205;-68
2022/11/17 07:41:07;;;;;;;3.73;2.43;;;;;;;8.75;89.20;93853.73;1742260;82;21073;-68
2022/11/17 07:43:35;;;;;;;2.50;1.90;;;;;;;8.84;89.73;93853.82;1742961;82;21053;-64
2022/11/17 07:46:11;;;;;;;11.08;6.42;;;;;;;8.89;89.51;93855.81;1742204;82;21547;-63
2022/11/17 07:48:38;;;;;;;5.22;4.10;;;;;;;8.98;89.47;93869.06;1742339;82;21001;-67
2022/11/17 07:51:06;;;;;;;9.08;5.87;;;;;;;9.02;89.63;93868.89;1743616;82;21484;-66
2022/11/17 07:53:33;;;;;;;5.03;3.60;;;;;;;9.07;88.90;93873.94;1742684;82;21064;-65
2022/11/17 07:56:06;;;;;;;2.37;2.15;;;;;;;9.04;88.60;93880.65;1742727;82;21037;-67
2022/11/17 07:58:33;;;;;;;3.25;2.52;;;;;;;8.92;87.94;93879.38;1742805;82;21049;-68
2022/11/17 08:01:16;;;;;;;1.67;1.55;;;;;;;8.86;87.91;93882.23;1738380;82;21680;-66
2022/11/17 08:03:43;;;;;;;1.57;1.47;;;;;;;8.76;87.77;93885.68;1735633;82;21013;-68
2022/11/17 08:06:09;;;;;;;0.93;0.87;;;;;;;8.67;87.73;93893.95;1735639;83;21084;-74
2022/11/17 08:08:36;;;;;;;1.50;1.10;;;;;;;8.60;87.80;93892.46;1728260;82;21085;-69
2022/11/17 08:11:07;;;;;;;1.70;1.57;;;;;;;8.52;87.79;93898.02;1715234;83;21050;-71
2022/11/17 08:13:35;;;;;;;1.83;1.40;;;;;;;8.51;88.03;93897.59;1753662;81;21049;-65
2022/11/17 08:16:02;;;;;;;3.27;2.30;;;;;;;8.47;87.87;93899.95;1752933;82;21017;-66
2022/11/17 08:18:29;;;;;;;2.37;1.90;;;;;;;8.42;87.67;93907.16;1753690;82;21117;-66
2022/11/17 08:21:07;;;;;;;1.30;1.17;;;;;;;8.40;87.75;93910.30;1754489;81;20998;-66
2022/11/17 08:23:33;;;;;;;3.33;2.43;;;;;;;8.35;87.80;93910.89;1754484;81;21014;-66
2022/11/17 08:26:05;;;;;;;2.00;1.80;;;;;;;8.30;87.75;93911.52;1754634;81;21030;-65
2022/11/17 08:28:35;;;;;;;2.13;1.93;;;;;;;8.28;87.59;93915.97;1755029;82;21010;-69
2022/11/17 08:31:04;;;;;;;1.97;1.50;;;;;;;8.29;87.71;93921.18;1753849;82;21014;-67
2022/11/17 08:33:32;;;;;;;1.10;1.00;;;;;;;8.31;87.86;93923.73;1754099;82;21054;-65
2022/11/17 08:36:00;;;;;;;2.77;2.40;;;;;;;8.31;87.65;93926.36;1753586;82;21504;-64
2022/11/17 08:38:27;;;;;;;1.00;0.70;;;;;;;8.32;87.77;93933.34;1753786;82;21403;-65
2022/11/17 08:41:03;;;;;;;8.70;7.93;;;;;;;8.38;88.06;93931.80;1755091;81;21050;-65
2022/11/17 08:43:31;;;;;;;8.97;8.17;;;;;;;8.39;87.94;93942.30;1680950;84;21092;-66
2022/11/17 08:45:57;;;;;;;1.33;1.03;;;;;;;8.30;87.00;93948.30;1746422;82;21042;-65
2022/11/17 08:48:25;;;;;;;3.60;3.27;;;;;;;8.34;87.50;93951.20;1747347;82;21050;-63
2022/11/17 08:50:51;;;;;;;5.83;5.03;;;;;;;8.36;86.49;93951.55;1747315;82;21142;-67
2022/11/17 08:53:20;;;;;;;4.50;4.10;;;;;;;8.39;86.12;93953.20;1746832;82;21323;-65
2022/11/17 08:55:48;;;;;;;2.47;2.27;;;;;;;8.43;86.21;93950.91;1747350;82;21101;-67
2022/11/17 08:58:16;;;;;;;2.30;1.57;;;;;;;8.49;86.42;93953.30;1747645;82;21095;-65
2022/11/17 09:00:44;;;;;;;1.80;1.67;;;;;;;8.53;85.54;93956.23;1748809;82;21019;-65
2022/11/17 09:03:11;;;;;;;1.67;1.57;;;;;;;8.61;86.18;93959.89;1754409;82;21057;-63
2022/11/17 09:05:44;;;;;;;1.17;0.90;;;;;;;8.64;84.99;93955.39;1755116;82;21022;-63
2022/11/17 09:08:12;;;;;;;2.50;2.30;;;;;;;8.64;85.04;93955.39;1754325;82;21556;-68
2022/11/17 09:10:39;;;;;;;2.23;2.03;;;;;;;8.68;85.41;93956.59;1754503;82;21085;-70
2022/11/17 09:13:06;;;;;;;4.23;3.00;;;;;;;8.74;85.26;93961.13;1754346;82;21100;-67
2022/11/17 09:15:33;;;;;;;1.40;1.30;;;;;;;8.74;83.71;93958.97;1755039;82;21003;-66
2022/11/17 09:18:01;;;;;;;1.90;1.57;;;;;;;8.76;84.19;93966.34;1754549;82;22188;-64
2022/11/17 09:20:30;;;;;;;2.67;1.90;;;;;;;8.70;83.60;93958.70;1755249;82;21121;-62
2022/11/17 09:23:01;;;;;;;1.90;1.70;;;;;;;8.69;84.46;93964.39;1754982;82;21033;-61
2022/11/17 09:25:29;;;;;;;1.75;1.62;;;;;;;8.72;84.22;93963.42;1754606;82;21045;-64
2022/11/17 09:27:56;;;;;;;3.12;2.40;;;;;;;8.71;84.27;93962.57;1753366;82;21062;-63
2022/11/17 09:30:23;;;;;;;2.90;2.27;;;;;;;8.67;84.28;93955.73;1754750;82;21006;-62
2022/11/17 09:32:50;;;;;;;1.70;1.60;;;;;;;8.70;84.61;93957.39;1758927;81;21063;-64
2022/11/17 09:35:18;;;;;;;1.40;1.30;;;;;;;8.72;83.64;93960.36;1763925;81;21650;-64
2022/11/17 09:37:44;;;;;;;3.27;1.85;;;;;;;8.53;82.35;93961.48;1762242;81;21040;-63
2022/11/17 09:40:15;;;;;;;2.83;1.50;;;;;;;8.45;83.07;93971.44;1744283;81;21026;-65
2022/11/17 09:42:42;;;;;;;3.57;2.70;;;;;;;8.38;83.32;93968.59;1739866;81;21634;-65
2022/11/17 09:45:22;;;;;;;2.53;2.07;;;;;;;8.26;83.48;93977.75;1750696;80;21511;-64
2022/11/17 09:48:12;;;;;;;1.80;1.55;;;;;;;8.24;83.69;93980.45;1755390;81;21059;-65
2022/11/17 09:50:40;;;;;;;4.00;1.52;;;;;;;8.18;83.24;93975.86;1757282;81;21014;-63
2022/11/17 09:53:34;;;;;;;1.70;1.43;;;;;;;8.18;83.87;93983.28;1771142;81;21058;-63
2022/11/17 09:56:05;;;;;;;1.55;1.45;;;;;;;8.18;83.93;93993.80;1749632;81;21057;-64
2022/11/17 09:58:56;;;;;;;3.37;2.60;;;;;;;8.18;84.10;93991.16;1735013;82;21541;-63
2022/11/17 10:01:26;;;;;;;4.57;2.73;;;;;;;8.15;83.88;94011.45;1676352;85;21150;-63
2022/11/17 10:03:55;;;;;;;2.70;2.50;;;;;;;8.06;83.76;94012.60;1667388;85;21518;-63
2022/11/17 10:06:28;;;;;;;2.67;2.47;;;;;;;7.99;83.95;94020.31;1667961;85;21529;-63
2022/11/17 10:09:37;;;;;;;2.65;2.15;;;;;;;7.95;84.14;94010.81;1653251;87;21049;-63
2022/11/17 10:12:16;;;;;;;7.83;5.17;;;;;;;7.90;83.97;94016.21;1655999;87;21386;-63
2022/11/17 10:14:43;;;;;;;4.00;2.50;;;;;;;7.80;84.15;94019.59;1651364;87;21067;-62
2022/11/17 10:17:11;;;;;;;2.70;2.50;;;;;;;7.74;84.50;94015.02;1652333;87;21602;-64
2022/11/17 10:19:40;;;;;;;12.67;11.40;;;;;;;7.72;84.83;94019.46;1652158;87;21173;-62
2022/11/17 10:22:12;;;;;;;3.30;3.00;;;;;;;7.69;84.76;94022.19;1652428;87;21103;-63
2022/11/17 10:24:46;;;;;;;5.10;4.60;;;;;;;7.71;85.01;94021.66;1653037;87;21075;-62
2022/11/17 10:27:32;;;;;;;3.60;2.73;;;;;;;7.74;85.24;94021.12;1653239;87;21090;-62
2022/11/17 10:30:20;;;;;;;2.97;2.13;;;;;;;7.81;85.29;94028.33;1653529;87;21059;-63
2022/11/17 10:32:53;;;;;;;2.43;2.23;;;;;;;7.86;85.17;94029.49;1653907;87;21007;-63
2022/11/17 10:35:25;;;;;;;;;;;;;;;7.83;85.35;94034.84;1656258;87;21059;-62
2022/11/17 10:38:00;;;;;;;2.47;2.27;;;;;;;7.76;84.59;94039.44;1653492;87;20127;-62
2022/11/17 10:40:30;;;;;;;2.80;2.50;;;;;;;7.71;85.13;94047.91;1653768;87;21023;-63
2022/11/17 10:43:16;;;;;;;2.47;2.20;;;;;;;7.69;85.32;94047.13;1653614;87;21501;-63
2022/11/17 10:45:46;;;;;;;2.53;2.33;;;;;;;7.64;85.91;94050.36;1658141;86;21090;-62
2022/11/17 10:48:26;;;;;;;2.20;2.00;;;;;;;7.57;85.18;94051.00;1653525;87;21079;-63
2022/11/17 10:50:58;;;;;;;2.93;1.93;;;;;;;7.55;85.81;94051.49;1653721;87;21559;-62
2022/11/17 10:53:35;;;;;;;2.03;1.63;;;;;;;7.49;85.87;94052.55;1652688;87;21166;-62
2022/11/17 10:56:06;;;;;;;3.37;2.60;;;;;;;7.45;85.85;94046.13;1652999;87;21054;-62
2022/11/17 10:58:56;;;;;;;21.80;15.53;;;;;;;7.47;86.00;94051.73;1652726;87;21090;-62
2022/11/17 11:01:35;;;;;;;2.40;2.00;;;;;;;7.47;85.58;94046.95;1653349;83;21098;-62
2022/11/17 11:04:06;;;;;;;4.30;3.20;;;;;;;7.51;85.57;94046.81;1675009;84;21079;-63
2022/11/17 11:06:34;;;;;;;1.20;1.10;;;;;;;7.56;85.55;94044.05;1738422;82;21039;-62
2022/11/17 11:09:11;;;;;;;1.30;1.20;;;;;;;7.59;85.59;94040.85;1738819;82;21020;-63
2022/11/17 11:11:48;;;;;;;1.20;1.10;;;;;;;7.66;85.01;94044.58;1738849;82;21011;-63
2022/11/17 11:14:32;;;;;;;1.57;1.47;;;;;;;7.77;85.30;94041.17;1707835;82;21000;-62
2022/11/17 11:17:03;;;;;;;1.90;1.70;;;;;;;7.89;84.88;94035.52;1738718;81;21043;-62
2022/11/17 11:19:29;;;;;;;1.80;1.07;;;;;;;7.94;83.83;94031.43;1738586;82;21457;-62
2022/11/17 11:22:26;;;;;;;18.47;8.13;;;;;;;7.89;82.72;94042.55;1738822;81;21031;-62
2022/11/17 11:25:31;;;;;;;1.63;1.53;;;;;;;8.02;83.54;94049.09;1738196;82;21063;-62
2022/11/17 11:28:40;;;;;;;3.63;2.70;;;;;;;7.98;82.24;94052.72;1738792;82;20984;-62
2022/11/17 11:31:35;;;;;;;1.43;1.00;;;;;;;7.97;82.79;94057.13;1738716;82;21020;-62
2022/11/17 11:34:22;;;;;;;3.30;2.23;;;;;;;8.00;82.61;94066.20;1738624;82;21015;-62
2022/11/17 11:36:59;;;;;;;2.47;1.90;;;;;;;7.96;82.75;94063.73;1737404;82;21051;-63
2022/11/17 11:39:55;;;;;;;1.17;0.97;;;;;;;8.02;83.66;94067.02;1738581;82;21019;-63
2022/11/17 11:42:45;;;;;;;1.63;1.17;;;;;;;8.02;82.91;94070.11;1738356;82;21008;-63
2022/11/17 11:45:26;;;;;;;1.57;1.20;;;;;;;7.88;82.36;94067.06;1738724;82;21107;-63
2022/11/17 11:48:07;;;;;;;1.63;1.40;;;;;;;7.84;82.65;94078.14;1738639;82;21071;-63
2022/11/17 11:50:52;;;;;;;1.70;1.60;;;;;;;7.69;82.80;94076.86;1738747;82;21032;-63
2022/11/17 11:53:44;;;;;;;2.00;1.37;;;;;;;7.62;83.25;94083.20;1738859;81;21140;-63
2022/11/17 11:56:42;;;;;;;3.20;2.27;;;;;;;7.58;83.27;94078.95;1707578;82;21040;-63
2022/11/17 11:59:47;;;;;;;2.37;2.00;;;;;;;7.56;83.72;94085.58;1738845;82;20996;-62
2022/11/17 12:02:16;;;;;;;1.80;1.50;;;;;;;7.51;83.58;94086.60;1738541;80;21095;-62
2022/11/17 12:04:51;;;;;;;1.50;1.40;;;;;;;7.48;84.46;94089.33;1748042;81;21619;-62
2022/11/17 12:07:23;;;;;;;1.70;1.60;;;;;;;7.46;84.37;94089.39;1745360;82;21051;-62
2022/11/17 12:10:07;;;;;;;1.57;1.47;;;;;;;7.44;84.24;94087.72;1729460;82;21046;-62
2022/11/17 12:12:39;;;;;;;2.20;1.70;;;;;;;7.44;84.51;94095.14;1746805;82;21493;-62
2022/11/17 12:15:23;;;;;;;1.53;1.43;;;;;;;7.45;84.66;94091.59;1746880;82;20996;-62
2022/11/17 12:18:17;;;;;;;2.10;1.43;;;;;;;7.51;85.07;94094.47;1746530;82;21011;-63
2022/11/17 12:21:02;;;;;;;2.40;2.00;;;;;;;7.49;84.69;94090.61;1746750;82;21043;-63
2022/11/17 12:23:50;;;;;;;3.30;1.97;;;;;;;7.50;84.78;94093.63;1746962;82;21066;-63
2022/11/17 12:26:27;;;;;;;3.00;2.00;;;;;;;7.47;84.81;94096.34;1719330;82;21043;-63
2022/11/17 12:29:23;;;;;;;3.87;2.70;;;;;;;7.53;85.09;94104.05;1746444;82;21034;-63
2022/11/17 12:31:56;;;;;;;2.30;1.47;;;;;;;7.54;84.93;94110.16;1745204;82;21027;-63
2022/11/17 12:34:32;;;;;;;4.25;2.05;;;;;;;7.56;84.66;94114.45;1746970;82;20964;-62
2022/11/17 12:37:18;;;;;;;2.60;2.00;;;;;;;7.57;84.71;94120.55;1746739;82;21039;-63
2022/11/17 12:40:01;;;;;;;2.40;2.20;;;;;;;7.61;84.71;94119.56;1746718;82;21027;-63